sensor_id;sensor_type;location;lat;lon;timestamp;P1;durP1;ratioP1;P2;durP2;ratioP2
8312;SDS011;4194;43.408;24.626;2023-07-31T00:00:26;12.50;;;11.40;;
8312;SDS011;4194;43.408;24.626;2023-07-31T00:02:52;12.40;;;11.40;;
8312;SDS011;4194;43.408;24.626;2023-07-31T00:05:19;12.03;;;10.93;;
8312;SDS011;4194;43.408;24.626;2023-07-31T00:07:45;12.07;;;10.93;;
8312;SDS011;4194;43.408;24.626;2023-07-31T00:10:10;12.67;;;11.57;;
8312;SDS011;4194;43.408;24.626;2023-07-31T00:12:37;12.50;;;11.50;;
8312;SDS011;4194;43.408;24.626;2023-07-31T00:15:03;11.27;;;10.37;;
8312;SDS011;4194;43.408;24.626;2023-07-31T00:17:29;11.17;;;10.27;;
8312;SDS011;4194;43.408;24.626;2023-07-31T00:19:55;11.70;;;10.60;;
8312;SDS011;4194;43.408;24.626;2023-07-31T00:22:21;11.27;;;10.37;;
8312;SDS011;4194;43.408;24.626;2023-07-31T00:24:46;11.90;;;10.93;;
8312;SDS011;4194;43.408;24.626;2023-07-31T00:27:12;10.30;;;9.30;;
8312;SDS011;4194;43.408;24.626;2023-07-31T00:29:37;10.17;;;9.17;;
8312;SDS011;4194;43.408;24.626;2023-07-31T00:32:03;12.27;;;9.30;;
8312;SDS011;4194;43.408;24.626;2023-07-31T00:34:29;9.97;;;8.97;;
8312;SDS011;4194;43.408;24.626;2023-07-31T00:36:55;8.10;;;7.37;;
8312;SDS011;4194;43.408;24.626;2023-07-31T00:39:20;9.37;;;8.43;;
8312;SDS011;4194;43.408;24.626;2023-07-31T00:41:46;8.80;;;8.10;;
8312;SDS011;4194;43.408;24.626;2023-07-31T00:44:12;7.97;;;7.27;;
8312;SDS011;4194;43.408;24.626;2023-07-31T00:46:37;8.40;;;6.57;;
8312;SDS011;4194;43.408;24.626;2023-07-31T00:49:03;8.23;;;7.53;;
8312;SDS011;4194;43.408;24.626;2023-07-31T00:51:30;9.27;;;7.80;;
8312;SDS011;4194;43.408;24.626;2023-07-31T00:53:56;9.23;;;8.43;;
8312;SDS011;4194;43.408;24.626;2023-07-31T00:56:23;9.87;;;8.87;;
8312;SDS011;4194;43.408;24.626;2023-07-31T00:58:50;10.10;;;9.30;;
8312;SDS011;4194;43.408;24.626;2023-07-31T01:01:15;10.47;;;9.33;;
8312;SDS011;4194;43.408;24.626;2023-07-31T01:03:41;10.73;;;9.83;;
8312;SDS011;4194;43.408;24.626;2023-07-31T01:08:58;11.40;;;10.40;;
8312;SDS011;4194;43.408;24.626;2023-07-31T01:11:30;12.23;;;11.23;;
8312;SDS011;4194;43.408;24.626;2023-07-31T01:13:58;11.33;;;10.23;;
8312;SDS011;4194;43.408;24.626;2023-07-31T01:16:27;11.07;;;10.07;;
8312;SDS011;4194;43.408;24.626;2023-07-31T01:18:53;12.77;;;11.53;;
8312;SDS011;4194;43.408;24.626;2023-07-31T01:27:02;15.67;;;12.67;;
8312;SDS011;4194;43.408;24.626;2023-07-31T01:29:48;12.53;;;11.37;;
8312;SDS011;4194;43.408;24.626;2023-07-31T01:32:18;11.27;;;10.30;;
8312;SDS011;4194;43.408;24.626;2023-07-31T01:34:44;11.27;;;9.83;;
8312;SDS011;4194;43.408;24.626;2023-07-31T01:37:12;11.17;;;10.17;;
8312;SDS011;4194;43.408;24.626;2023-07-31T01:39:37;11.73;;;10.63;;
8312;SDS011;4194;43.408;24.626;2023-07-31T01:42:03;12.83;;;11.57;;
8312;SDS011;4194;43.408;24.626;2023-07-31T01:44:29;12.77;;;11.67;;
8312;SDS011;4194;43.408;24.626;2023-07-31T01:46:54;12.20;;;11.20;;
8312;SDS011;4194;43.408;24.626;2023-07-31T01:49:20;13.43;;;12.23;;
8312;SDS011;4194;43.408;24.626;2023-07-31T01:51:46;12.50;;;11.50;;
8312;SDS011;4194;43.408;24.626;2023-07-31T01:54:12;13.30;;;12.23;;
8312;SDS011;4194;43.408;24.626;2023-07-31T01:56:37;14.27;;;12.87;;
8312;SDS011;4194;43.408;24.626;2023-07-31T01:59:03;13.30;;;12.10;;
8312;SDS011;4194;43.408;24.626;2023-07-31T02:01:28;13.47;;;12.37;;
8312;SDS011;4194;43.408;24.626;2023-07-31T02:03:54;13.30;;;12.20;;
8312;SDS011;4194;43.408;24.626;2023-07-31T02:06:20;12.07;;;11.07;;
8312;SDS011;4194;43.408;24.626;2023-07-31T02:08:45;12.57;;;11.57;;
8312;SDS011;4194;43.408;24.626;2023-07-31T02:11:11;12.77;;;11.47;;
8312;SDS011;4194;43.408;24.626;2023-07-31T02:13:37;12.30;;;11.13;;
8312;SDS011;4194;43.408;24.626;2023-07-31T02:16:03;11.80;;;10.83;;
8312;SDS011;4194;43.408;24.626;2023-07-31T02:18:28;12.57;;;11.57;;
8312;SDS011;4194;43.408;24.626;2023-07-31T02:20:54;12.80;;;11.63;;
8312;SDS011;4194;43.408;24.626;2023-07-31T02:23:20;12.53;;;11.47;;
8312;SDS011;4194;43.408;24.626;2023-07-31T02:25:46;13.03;;;11.83;;
8312;SDS011;4194;43.408;24.626;2023-07-31T02:28:12;13.53;;;12.23;;
8312;SDS011;4194;43.408;24.626;2023-07-31T02:30:38;12.60;;;11.53;;
8312;SDS011;4194;43.408;24.626;2023-07-31T02:33:04;13.57;;;12.47;;
8312;SDS011;4194;43.408;24.626;2023-07-31T02:35:30;14.23;;;12.23;;
8312;SDS011;4194;43.408;24.626;2023-07-31T02:37:56;12.43;;;11.43;;
8312;SDS011;4194;43.408;24.626;2023-07-31T02:40:21;12.97;;;11.77;;
8312;SDS011;4194;43.408;24.626;2023-07-31T02:42:48;12.57;;;11.47;;
8312;SDS011;4194;43.408;24.626;2023-07-31T02:45:14;12.80;;;11.70;;
8312;SDS011;4194;43.408;24.626;2023-07-31T02:47:39;12.70;;;11.70;;
8312;SDS011;4194;43.408;24.626;2023-07-31T02:50:05;17.07;;;11.87;;
8312;SDS011;4194;43.408;24.626;2023-07-31T02:52:31;13.02;;;11.82;;
8312;SDS011;4194;43.408;24.626;2023-07-31T02:54:57;11.83;;;10.73;;
8312;SDS011;4194;43.408;24.626;2023-07-31T02:57:23;11.53;;;10.47;;
8312;SDS011;4194;43.408;24.626;2023-07-31T02:59:49;11.23;;;10.33;;
8312;SDS011;4194;43.408;24.626;2023-07-31T03:02:14;11.90;;;10.80;;
8312;SDS011;4194;43.408;24.626;2023-07-31T03:04:40;13.27;;;11.33;;
8312;SDS011;4194;43.408;24.626;2023-07-31T03:07:06;15.77;;;10.10;;
8312;SDS011;4194;43.408;24.626;2023-07-31T03:09:32;11.73;;;10.63;;
8312;SDS011;4194;43.408;24.626;2023-07-31T03:11:57;12.20;;;10.97;;
8312;SDS011;4194;43.408;24.626;2023-07-31T03:14:23;11.80;;;10.60;;
8312;SDS011;4194;43.408;24.626;2023-07-31T03:16:51;11.87;;;10.87;;
8312;SDS011;4194;43.408;24.626;2023-07-31T03:19:17;11.67;;;10.63;;
8312;SDS011;4194;43.408;24.626;2023-07-31T03:21:43;12.80;;;11.23;;
8312;SDS011;4194;43.408;24.626;2023-07-31T03:24:08;12.43;;;11.17;;
8312;SDS011;4194;43.408;24.626;2023-07-31T03:26:34;15.40;;;12.03;;
8312;SDS011;4194;43.408;24.626;2023-07-31T03:29:01;13.03;;;11.80;;
8312;SDS011;4194;43.408;24.626;2023-07-31T03:31:27;15.10;;;12.00;;
8312;SDS011;4194;43.408;24.626;2023-07-31T03:33:52;13.73;;;12.23;;
8312;SDS011;4194;43.408;24.626;2023-07-31T03:36:18;14.90;;;12.10;;
8312;SDS011;4194;43.408;24.626;2023-07-31T03:38:44;15.37;;;12.50;;
8312;SDS011;4194;43.408;24.626;2023-07-31T03:41:10;13.27;;;11.90;;
8312;SDS011;4194;43.408;24.626;2023-07-31T03:43:36;13.60;;;12.23;;
8312;SDS011;4194;43.408;24.626;2023-07-31T03:46:02;14.40;;;12.73;;
8312;SDS011;4194;43.408;24.626;2023-07-31T03:48:28;14.60;;;13.13;;
8312;SDS011;4194;43.408;24.626;2023-07-31T03:50:53;16.00;;;14.33;;
8312;SDS011;4194;43.408;24.626;2023-07-31T03:53:20;15.87;;;14.37;;
8312;SDS011;4194;43.408;24.626;2023-07-31T03:55:45;15.90;;;14.47;;
8312;SDS011;4194;43.408;24.626;2023-07-31T03:58:11;16.33;;;14.87;;
8312;SDS011;4194;43.408;24.626;2023-07-31T04:00:37;15.80;;;14.50;;
8312;SDS011;4194;43.408;24.626;2023-07-31T04:03:03;16.27;;;14.67;;
8312;SDS011;4194;43.408;24.626;2023-07-31T04:05:32;17.17;;;15.57;;
8312;SDS011;4194;43.408;24.626;2023-07-31T04:07:58;16.37;;;14.87;;
8312;SDS011;4194;43.408;24.626;2023-07-31T04:10:23;16.17;;;14.77;;
8312;SDS011;4194;43.408;24.626;2023-07-31T04:12:49;15.57;;;13.97;;
8312;SDS011;4194;43.408;24.626;2023-07-31T04:15:15;15.37;;;14.07;;
8312;SDS011;4194;43.408;24.626;2023-07-31T04:17:40;16.47;;;14.60;;
8312;SDS011;4194;43.408;24.626;2023-07-31T04:20:07;15.63;;;14.23;;
8312;SDS011;4194;43.408;24.626;2023-07-31T04:22:32;14.50;;;13.23;;
8312;SDS011;4194;43.408;24.626;2023-07-31T04:24:58;16.17;;;13.77;;
8312;SDS011;4194;43.408;24.626;2023-07-31T04:27:24;15.07;;;13.67;;
8312;SDS011;4194;43.408;24.626;2023-07-31T04:29:50;15.43;;;14.10;;
8312;SDS011;4194;43.408;24.626;2023-07-31T04:32:16;16.20;;;14.63;;
8312;SDS011;4194;43.408;24.626;2023-07-31T04:34:42;15.50;;;14.00;;
8312;SDS011;4194;43.408;24.626;2023-07-31T04:37:07;15.50;;;14.17;;
8312;SDS011;4194;43.408;24.626;2023-07-31T04:39:33;14.77;;;13.47;;
8312;SDS011;4194;43.408;24.626;2023-07-31T04:41:59;14.30;;;13.00;;
8312;SDS011;4194;43.408;24.626;2023-07-31T04:44:24;15.23;;;13.77;;
8312;SDS011;4194;43.408;24.626;2023-07-31T04:46:50;14.67;;;13.10;;
8312;SDS011;4194;43.408;24.626;2023-07-31T04:49:16;13.47;;;12.17;;
8312;SDS011;4194;43.408;24.626;2023-07-31T04:51:42;15.07;;;13.50;;
8312;SDS011;4194;43.408;24.626;2023-07-31T04:54:07;14.03;;;12.63;;
8312;SDS011;4194;43.408;24.626;2023-07-31T04:56:33;14.03;;;12.53;;
8312;SDS011;4194;43.408;24.626;2023-07-31T04:58:59;14.83;;;13.37;;
8312;SDS011;4194;43.408;24.626;2023-07-31T05:01:24;14.00;;;12.60;;
8312;SDS011;4194;43.408;24.626;2023-07-31T05:03:50;14.00;;;12.60;;
8312;SDS011;4194;43.408;24.626;2023-07-31T05:06:16;13.17;;;11.87;;
8312;SDS011;4194;43.408;24.626;2023-07-31T05:08:41;14.77;;;12.97;;
8312;SDS011;4194;43.408;24.626;2023-07-31T05:11:07;13.40;;;12.00;;
8312;SDS011;4194;43.408;24.626;2023-07-31T05:13:33;12.37;;;11.20;;
8312;SDS011;4194;43.408;24.626;2023-07-31T05:15:58;15.93;;;11.30;;
8312;SDS011;4194;43.408;24.626;2023-07-31T05:18:24;14.37;;;12.23;;
8312;SDS011;4194;43.408;24.626;2023-07-31T05:20:50;15.33;;;12.67;;
8312;SDS011;4194;43.408;24.626;2023-07-31T05:23:15;15.97;;;12.63;;
8312;SDS011;4194;43.408;24.626;2023-07-31T05:25:41;15.03;;;11.90;;
8312;SDS011;4194;43.408;24.626;2023-07-31T05:28:07;13.03;;;11.60;;
8312;SDS011;4194;43.408;24.626;2023-07-31T05:30:33;18.20;;;11.80;;
8312;SDS011;4194;43.408;24.626;2023-07-31T05:32:58;12.13;;;10.80;;
8312;SDS011;4194;43.408;24.626;2023-07-31T05:35:24;12.97;;;10.63;;
8312;SDS011;4194;43.408;24.626;2023-07-31T05:37:50;13.97;;;10.73;;
8312;SDS011;4194;43.408;24.626;2023-07-31T05:40:15;15.10;;;9.97;;
8312;SDS011;4194;43.408;24.626;2023-07-31T05:42:41;13.27;;;9.47;;
8312;SDS011;4194;43.408;24.626;2023-07-31T05:45:07;9.80;;;8.90;;
8312;SDS011;4194;43.408;24.626;2023-07-31T05:47:33;11.05;;;9.95;;
8312;SDS011;4194;43.408;24.626;2023-07-31T05:49:59;10.87;;;9.40;;
8312;SDS011;4194;43.408;24.626;2023-07-31T05:52:24;10.20;;;9.10;;
8312;SDS011;4194;43.408;24.626;2023-07-31T05:54:50;12.73;;;9.07;;
8312;SDS011;4194;43.408;24.626;2023-07-31T05:57:16;9.67;;;8.43;;
8312;SDS011;4194;43.408;24.626;2023-07-31T05:59:42;10.33;;;9.20;;
8312;SDS011;4194;43.408;24.626;2023-07-31T06:02:08;11.13;;;9.27;;
8312;SDS011;4194;43.408;24.626;2023-07-31T06:04:33;10.83;;;9.17;;
8312;SDS011;4194;43.408;24.626;2023-07-31T06:06:59;10.20;;;9.20;;
8312;SDS011;4194;43.408;24.626;2023-07-31T06:09:25;12.33;;;9.87;;
8312;SDS011;4194;43.408;24.626;2023-07-31T06:11:51;14.40;;;10.17;;
8312;SDS011;4194;43.408;24.626;2023-07-31T06:14:17;12.67;;;8.90;;
8312;SDS011;4194;43.408;24.626;2023-07-31T06:16:43;9.40;;;8.30;;
8312;SDS011;4194;43.408;24.626;2023-07-31T06:19:09;8.70;;;7.73;;
8312;SDS011;4194;43.408;24.626;2023-07-31T06:21:35;8.30;;;7.50;;
8312;SDS011;4194;43.408;24.626;2023-07-31T06:24:05;7.57;;;6.87;;
8312;SDS011;4194;43.408;24.626;2023-07-31T06:26:31;6.87;;;6.27;;
8312;SDS011;4194;43.408;24.626;2023-07-31T06:28:57;7.60;;;5.70;;
8312;SDS011;4194;43.408;24.626;2023-07-31T06:31:22;6.07;;;5.37;;
8312;SDS011;4194;43.408;24.626;2023-07-31T06:33:49;6.90;;;5.70;;
8312;SDS011;4194;43.408;24.626;2023-07-31T06:36:16;6.20;;;5.60;;
8312;SDS011;4194;43.408;24.626;2023-07-31T06:38:41;7.63;;;5.23;;
8312;SDS011;4194;43.408;24.626;2023-07-31T06:41:07;5.63;;;5.13;;
8312;SDS011;4194;43.408;24.626;2023-07-31T06:43:33;5.80;;;4.77;;
8312;SDS011;4194;43.408;24.626;2023-07-31T06:46:00;5.80;;;5.23;;
8312;SDS011;4194;43.408;24.626;2023-07-31T06:48:33;8.10;;;5.47;;
8312;SDS011;4194;43.408;24.626;2023-07-31T06:51:00;6.00;;;5.40;;
8312;SDS011;4194;43.408;24.626;2023-07-31T06:53:26;7.50;;;5.10;;
8312;SDS011;4194;43.408;24.626;2023-07-31T06:55:52;6.23;;;5.60;;
8312;SDS011;4194;43.408;24.626;2023-07-31T06:58:17;5.13;;;4.63;;
8312;SDS011;4194;43.408;24.626;2023-07-31T07:00:43;7.00;;;5.40;;
8312;SDS011;4194;43.408;24.626;2023-07-31T07:03:09;6.17;;;4.57;;
8312;SDS011;4194;43.408;24.626;2023-07-31T07:05:35;6.47;;;5.60;;
8312;SDS011;4194;43.408;24.626;2023-07-31T07:08:00;5.63;;;4.83;;
8312;SDS011;4194;43.408;24.626;2023-07-31T07:10:26;5.63;;;4.50;;
8312;SDS011;4194;43.408;24.626;2023-07-31T07:12:52;6.17;;;4.63;;
8312;SDS011;4194;43.408;24.626;2023-07-31T07:15:18;6.13;;;4.70;;
8312;SDS011;4194;43.408;24.626;2023-07-31T07:17:43;5.07;;;4.60;;
8312;SDS011;4194;43.408;24.626;2023-07-31T07:20:09;5.27;;;4.77;;
8312;SDS011;4194;43.408;24.626;2023-07-31T07:22:35;5.50;;;4.70;;
8312;SDS011;4194;43.408;24.626;2023-07-31T07:25:01;5.73;;;4.33;;
8312;SDS011;4194;43.408;24.626;2023-07-31T07:27:27;4.80;;;4.40;;
8312;SDS011;4194;43.408;24.626;2023-07-31T07:29:53;5.37;;;4.87;;
8312;SDS011;4194;43.408;24.626;2023-07-31T07:32:19;9.83;;;6.53;;
8312;SDS011;4194;43.408;24.626;2023-07-31T07:34:45;5.90;;;4.73;;
8312;SDS011;4194;43.408;24.626;2023-07-31T07:37:12;4.40;;;4.07;;
8312;SDS011;4194;43.408;24.626;2023-07-31T07:39:37;6.30;;;4.63;;
8312;SDS011;4194;43.408;24.626;2023-07-31T07:42:03;5.23;;;4.30;;
8312;SDS011;4194;43.408;24.626;2023-07-31T07:44:29;4.53;;;4.13;;
8312;SDS011;4194;43.408;24.626;2023-07-31T07:46:54;5.50;;;5.00;;
8312;SDS011;4194;43.408;24.626;2023-07-31T07:49:20;5.10;;;4.37;;
8312;SDS011;4194;43.408;24.626;2023-07-31T07:51:47;5.93;;;4.77;;
8312;SDS011;4194;43.408;24.626;2023-07-31T07:54:13;4.43;;;4.03;;
8312;SDS011;4194;43.408;24.626;2023-07-31T07:56:39;6.43;;;4.40;;
8312;SDS011;4194;43.408;24.626;2023-07-31T07:59:05;5.67;;;4.60;;
8312;SDS011;4194;43.408;24.626;2023-07-31T08:01:30;5.27;;;4.77;;
8312;SDS011;4194;43.408;24.626;2023-07-31T08:03:56;5.50;;;4.33;;
8312;SDS011;4194;43.408;24.626;2023-07-31T08:06:22;4.73;;;4.20;;
8312;SDS011;4194;43.408;24.626;2023-07-31T08:08:48;4.60;;;4.20;;
8312;SDS011;4194;43.408;24.626;2023-07-31T08:11:14;5.23;;;4.40;;
8312;SDS011;4194;43.408;24.626;2023-07-31T08:13:39;5.40;;;4.00;;
8312;SDS011;4194;43.408;24.626;2023-07-31T08:16:05;4.47;;;4.00;;
8312;SDS011;4194;43.408;24.626;2023-07-31T08:18:31;5.23;;;4.10;;
8312;SDS011;4194;43.408;24.626;2023-07-31T08:20:57;5.27;;;4.43;;
8312;SDS011;4194;43.408;24.626;2023-07-31T08:23:23;5.43;;;4.23;;
8312;SDS011;4194;43.408;24.626;2023-07-31T08:25:49;4.10;;;3.70;;
8312;SDS011;4194;43.408;24.626;2023-07-31T08:28:15;4.60;;;4.20;;
8312;SDS011;4194;43.408;24.626;2023-07-31T08:30:41;5.80;;;5.17;;
8312;SDS011;4194;43.408;24.626;2023-07-31T08:33:07;5.97;;;4.83;;
8312;SDS011;4194;43.408;24.626;2023-07-31T08:35:33;4.50;;;4.10;;
8312;SDS011;4194;43.408;24.626;2023-07-31T08:37:59;4.37;;;3.60;;
8312;SDS011;4194;43.408;24.626;2023-07-31T08:40:24;4.70;;;3.70;;
8312;SDS011;4194;43.408;24.626;2023-07-31T08:42:53;4.90;;;4.27;;
8312;SDS011;4194;43.408;24.626;2023-07-31T08:45:21;4.20;;;3.90;;
8312;SDS011;4194;43.408;24.626;2023-07-31T08:47:48;4.77;;;4.30;;
8312;SDS011;4194;43.408;24.626;2023-07-31T08:50:15;3.80;;;3.40;;
8312;SDS011;4194;43.408;24.626;2023-07-31T08:52:43;5.63;;;4.00;;
8312;SDS011;4194;43.408;24.626;2023-07-31T08:55:09;5.47;;;3.63;;
8312;SDS011;4194;43.408;24.626;2023-07-31T08:57:35;4.10;;;3.70;;
8312;SDS011;4194;43.408;24.626;2023-07-31T09:00:03;4.57;;;4.17;;
8312;SDS011;4194;43.408;24.626;2023-07-31T09:05:41;4.73;;;3.80;;
8312;SDS011;4194;43.408;24.626;2023-07-31T09:08:12;4.03;;;3.70;;
8312;SDS011;4194;43.408;24.626;2023-07-31T09:10:43;4.37;;;3.90;;
8312;SDS011;4194;43.408;24.626;2023-07-31T09:13:14;4.73;;;3.73;;
8312;SDS011;4194;43.408;24.626;2023-07-31T09:15:41;4.83;;;4.30;;
8312;SDS011;4194;43.408;24.626;2023-07-31T09:18:08;4.50;;;4.10;;
8312;SDS011;4194;43.408;24.626;2023-07-31T09:20:34;4.00;;;3.70;;
8312;SDS011;4194;43.408;24.626;2023-07-31T09:23:11;4.80;;;4.40;;
8312;SDS011;4194;43.408;24.626;2023-07-31T09:25:38;8.50;;;4.50;;
8312;SDS011;4194;43.408;24.626;2023-07-31T09:28:05;4.40;;;4.00;;
8312;SDS011;4194;43.408;24.626;2023-07-31T09:30:49;5.07;;;4.07;;
8312;SDS011;4194;43.408;24.626;2023-07-31T09:33:16;6.43;;;4.43;;
8312;SDS011;4194;43.408;24.626;2023-07-31T09:35:42;7.00;;;4.70;;
8312;SDS011;4194;43.408;24.626;2023-07-31T09:38:12;5.13;;;4.60;;
8312;SDS011;4194;43.408;24.626;2023-07-31T09:43:06;5.37;;;4.90;;
8312;SDS011;4194;43.408;24.626;2023-07-31T09:45:35;5.33;;;4.67;;
8312;SDS011;4194;43.408;24.626;2023-07-31T09:48:02;5.40;;;4.77;;
8312;SDS011;4194;43.408;24.626;2023-07-31T09:50:31;6.53;;;4.70;;
8312;SDS011;4194;43.408;24.626;2023-07-31T09:52:57;5.10;;;4.60;;
8312;SDS011;4194;43.408;24.626;2023-07-31T09:55:23;4.90;;;4.40;;
8312;SDS011;4194;43.408;24.626;2023-07-31T09:57:49;4.63;;;4.20;;
8312;SDS011;4194;43.408;24.626;2023-07-31T10:00:16;5.73;;;4.43;;
8312;SDS011;4194;43.408;24.626;2023-07-31T10:02:46;7.60;;;4.90;;
8312;SDS011;4194;43.408;24.626;2023-07-31T10:05:13;6.73;;;5.90;;
8312;SDS011;4194;43.408;24.626;2023-07-31T10:07:45;6.43;;;5.77;;
8312;SDS011;4194;43.408;24.626;2023-07-31T10:10:20;8.43;;;6.30;;
8312;SDS011;4194;43.408;24.626;2023-07-31T10:12:48;7.70;;;7.00;;
8312;SDS011;4194;43.408;24.626;2023-07-31T10:15:15;8.00;;;7.30;;
8312;SDS011;4194;43.408;24.626;2023-07-31T10:17:41;8.13;;;7.43;;
8312;SDS011;4194;43.408;24.626;2023-07-31T10:20:07;7.70;;;6.63;;
8312;SDS011;4194;43.408;24.626;2023-07-31T10:22:34;8.23;;;6.77;;
8312;SDS011;4194;43.408;24.626;2023-07-31T10:25:00;21.23;;;7.27;;
8312;SDS011;4194;43.408;24.626;2023-07-31T10:27:26;6.83;;;6.13;;
8312;SDS011;4194;43.408;24.626;2023-07-31T10:29:53;6.90;;;6.07;;
8312;SDS011;4194;43.408;24.626;2023-07-31T10:32:20;7.27;;;6.23;;
8312;SDS011;4194;43.408;24.626;2023-07-31T10:34:47;6.60;;;5.90;;
8312;SDS011;4194;43.408;24.626;2023-07-31T10:40:06;7.80;;;5.93;;
8312;SDS011;4194;43.408;24.626;2023-07-31T10:42:36;8.87;;;6.00;;
8312;SDS011;4194;43.408;24.626;2023-07-31T10:45:07;5.90;;;4.90;;
8312;SDS011;4194;43.408;24.626;2023-07-31T10:47:45;5.73;;;5.03;;
8312;SDS011;4194;43.408;24.626;2023-07-31T10:50:22;6.03;;;4.80;;
8312;SDS011;4194;43.408;24.626;2023-07-31T10:52:51;5.53;;;4.53;;
8312;SDS011;4194;43.408;24.626;2023-07-31T10:55:24;4.70;;;4.30;;
8312;SDS011;4194;43.408;24.626;2023-07-31T10:57:51;5.90;;;5.00;;
8312;SDS011;4194;43.408;24.626;2023-07-31T11:02:59;4.27;;;3.97;;
8312;SDS011;4194;43.408;24.626;2023-07-31T11:08:22;4.47;;;4.00;;
8312;SDS011;4194;43.408;24.626;2023-07-31T11:15:55;4.53;;;3.77;;
8312;SDS011;4194;43.408;24.626;2023-07-31T11:18:21;6.67;;;3.93;;
8312;SDS011;4194;43.408;24.626;2023-07-31T11:20:47;5.40;;;3.70;;
8312;SDS011;4194;43.408;24.626;2023-07-31T11:23:12;4.47;;;3.83;;
8312;SDS011;4194;43.408;24.626;2023-07-31T11:25:40;7.07;;;3.60;;
8312;SDS011;4194;43.408;24.626;2023-07-31T11:28:09;7.93;;;3.90;;
8312;SDS011;4194;43.408;24.626;2023-07-31T11:30:36;3.90;;;3.60;;
8312;SDS011;4194;43.408;24.626;2023-07-31T11:33:02;4.18;;;3.50;;
8312;SDS011;4194;43.408;24.626;2023-07-31T11:35:33;3.60;;;3.30;;
8312;SDS011;4194;43.408;24.626;2023-07-31T11:38:10;4.50;;;4.10;;
8312;SDS011;4194;43.408;24.626;2023-07-31T11:40:43;4.95;;;4.07;;
8312;SDS011;4194;43.408;24.626;2023-07-31T11:43:09;4.07;;;3.77;;
8312;SDS011;4194;43.408;24.626;2023-07-31T11:45:41;4.20;;;3.80;;
8312;SDS011;4194;43.408;24.626;2023-07-31T11:48:07;5.40;;;4.63;;
8312;SDS011;4194;43.408;24.626;2023-07-31T11:50:35;4.67;;;4.37;;
8312;SDS011;4194;43.408;24.626;2023-07-31T11:53:03;5.13;;;4.72;;
8312;SDS011;4194;43.408;24.626;2023-07-31T11:55:34;5.53;;;5.00;;
8312;SDS011;4194;43.408;24.626;2023-07-31T11:58:00;5.13;;;4.63;;
8312;SDS011;4194;43.408;24.626;2023-07-31T12:00:26;5.87;;;4.97;;
8312;SDS011;4194;43.408;24.626;2023-07-31T12:02:52;6.93;;;5.37;;
8312;SDS011;4194;43.408;24.626;2023-07-31T12:05:18;6.00;;;5.37;;
8312;SDS011;4194;43.408;24.626;2023-07-31T12:07:54;5.40;;;4.87;;
8312;SDS011;4194;43.408;24.626;2023-07-31T12:10:30;6.67;;;5.93;;
8312;SDS011;4194;43.408;24.626;2023-07-31T12:12:58;6.73;;;6.00;;
8312;SDS011;4194;43.408;24.626;2023-07-31T12:18:08;6.03;;;5.43;;
8312;SDS011;4194;43.408;24.626;2023-07-31T12:20:57;6.00;;;5.50;;
8312;SDS011;4194;43.408;24.626;2023-07-31T12:23:25;4.90;;;4.50;;
8312;SDS011;4194;43.408;24.626;2023-07-31T12:28:45;6.70;;;6.10;;
8312;SDS011;4194;43.408;24.626;2023-07-31T12:31:15;5.90;;;5.40;;
8312;SDS011;4194;43.408;24.626;2023-07-31T12:33:45;8.57;;;5.80;;
8312;SDS011;4194;43.408;24.626;2023-07-31T12:36:16;6.20;;;5.60;;
8312;SDS011;4194;43.408;24.626;2023-07-31T12:38:43;5.50;;;5.07;;
8312;SDS011;4194;43.408;24.626;2023-07-31T12:41:09;5.37;;;4.87;;
8312;SDS011;4194;43.408;24.626;2023-07-31T12:43:36;5.97;;;4.70;;
8312;SDS011;4194;43.408;24.626;2023-07-31T12:46:02;5.83;;;5.30;;
8312;SDS011;4194;43.408;24.626;2023-07-31T12:48:28;4.63;;;4.30;;
8312;SDS011;4194;43.408;24.626;2023-07-31T12:50:54;5.47;;;4.67;;
8312;SDS011;4194;43.408;24.626;2023-07-31T12:53:20;5.40;;;4.67;;
8312;SDS011;4194;43.408;24.626;2023-07-31T12:55:46;6.80;;;4.97;;
8312;SDS011;4194;43.408;24.626;2023-07-31T12:58:12;5.00;;;4.50;;
8312;SDS011;4194;43.408;24.626;2023-07-31T13:00:37;5.03;;;4.63;;
8312;SDS011;4194;43.408;24.626;2023-07-31T13:03:03;5.57;;;5.10;;
8312;SDS011;4194;43.408;24.626;2023-07-31T13:05:29;5.23;;;4.70;;
8312;SDS011;4194;43.408;24.626;2023-07-31T13:07:55;11.00;;;5.33;;
8312;SDS011;4194;43.408;24.626;2023-07-31T13:10:22;8.73;;;5.13;;
8312;SDS011;4194;43.408;24.626;2023-07-31T13:12:48;9.30;;;5.70;;
8312;SDS011;4194;43.408;24.626;2023-07-31T13:15:14;13.47;;;4.90;;
8312;SDS011;4194;43.408;24.626;2023-07-31T13:17:40;9.43;;;5.70;;
8312;SDS011;4194;43.408;24.626;2023-07-31T13:20:06;7.53;;;5.27;;
8312;SDS011;4194;43.408;24.626;2023-07-31T13:22:32;6.40;;;5.67;;
8312;SDS011;4194;43.408;24.626;2023-07-31T13:24:58;7.37;;;5.87;;
8312;SDS011;4194;43.408;24.626;2023-07-31T13:27:24;7.17;;;5.47;;
8312;SDS011;4194;43.408;24.626;2023-07-31T13:29:50;6.97;;;5.73;;
8312;SDS011;4194;43.408;24.626;2023-07-31T13:32:17;5.93;;;5.43;;
8312;SDS011;4194;43.408;24.626;2023-07-31T13:34:43;6.50;;;5.90;;
8312;SDS011;4194;43.408;24.626;2023-07-31T13:37:09;13.50;;;6.60;;
8312;SDS011;4194;43.408;24.626;2023-07-31T13:39:35;6.93;;;6.27;;
8312;SDS011;4194;43.408;24.626;2023-07-31T13:42:04;9.03;;;6.80;;
8312;SDS011;4194;43.408;24.626;2023-07-31T13:44:33;6.40;;;5.80;;
8312;SDS011;4194;43.408;24.626;2023-07-31T13:46:59;5.50;;;5.00;;
8312;SDS011;4194;43.408;24.626;2023-07-31T13:49:25;5.57;;;4.88;;
8312;SDS011;4194;43.408;24.626;2023-07-31T13:51:51;4.72;;;4.30;;
8312;SDS011;4194;43.408;24.626;2023-07-31T13:54:17;3.97;;;3.67;;
8312;SDS011;4194;43.408;24.626;2023-07-31T13:56:43;3.70;;;3.40;;
8312;SDS011;4194;43.408;24.626;2023-07-31T13:59:09;4.53;;;3.70;;
8312;SDS011;4194;43.408;24.626;2023-07-31T14:01:35;4.07;;;3.55;;
8312;SDS011;4194;43.408;24.626;2023-07-31T14:04:01;5.22;;;3.70;;
8312;SDS011;4194;43.408;24.626;2023-07-31T14:06:27;3.08;;;2.88;;
8312;SDS011;4194;43.408;24.626;2023-07-31T14:08:53;3.47;;;3.20;;
8312;SDS011;4194;43.408;24.626;2023-07-31T14:11:18;3.95;;;3.00;;
8312;SDS011;4194;43.408;24.626;2023-07-31T14:13:44;3.10;;;2.85;;
8312;SDS011;4194;43.408;24.626;2023-07-31T14:16:10;2.63;;;2.42;;
8312;SDS011;4194;43.408;24.626;2023-07-31T14:18:35;5.47;;;2.95;;
8312;SDS011;4194;43.408;24.626;2023-07-31T14:21:01;2.80;;;2.55;;
8312;SDS011;4194;43.408;24.626;2023-07-31T14:23:27;4.13;;;3.03;;
8312;SDS011;4194;43.408;24.626;2023-07-31T14:25:53;3.35;;;2.88;;
8312;SDS011;4194;43.408;24.626;2023-07-31T14:28:18;3.97;;;2.80;;
8312;SDS011;4194;43.408;24.626;2023-07-31T14:30:44;6.22;;;2.95;;
8312;SDS011;4194;43.408;24.626;2023-07-31T14:33:10;2.80;;;2.60;;
8312;SDS011;4194;43.408;24.626;2023-07-31T14:35:35;2.75;;;2.55;;
8312;SDS011;4194;43.408;24.626;2023-07-31T14:38:01;3.08;;;2.88;;
8312;SDS011;4194;43.408;24.626;2023-07-31T14:40:27;2.72;;;2.53;;
8312;SDS011;4194;43.408;24.626;2023-07-31T14:42:53;3.25;;;3.05;;
8312;SDS011;4194;43.408;24.626;2023-07-31T14:45:18;3.33;;;2.80;;
8312;SDS011;4194;43.408;24.626;2023-07-31T14:47:44;4.07;;;2.45;;
8312;SDS011;4194;43.408;24.626;2023-07-31T14:50:10;3.70;;;2.70;;
8312;SDS011;4194;43.408;24.626;2023-07-31T14:52:35;2.55;;;2.35;;
8312;SDS011;4194;43.408;24.626;2023-07-31T14:55:02;2.78;;;2.28;;
8312;SDS011;4194;43.408;24.626;2023-07-31T14:57:28;3.72;;;1.83;;
8312;SDS011;4194;43.408;24.626;2023-07-31T14:59:53;2.88;;;2.40;;
8312;SDS011;4194;43.408;24.626;2023-07-31T15:02:19;9.50;;;2.80;;
8312;SDS011;4194;43.408;24.626;2023-07-31T15:04:45;2.88;;;2.40;;
8312;SDS011;4194;43.408;24.626;2023-07-31T15:07:10;2.50;;;2.30;;
8312;SDS011;4194;43.408;24.626;2023-07-31T15:09:38;2.70;;;2.50;;
8312;SDS011;4194;43.408;24.626;2023-07-31T15:12:04;2.90;;;2.70;;
8312;SDS011;4194;43.408;24.626;2023-07-31T15:14:30;4.07;;;2.88;;
8312;SDS011;4194;43.408;24.626;2023-07-31T15:16:56;2.63;;;2.42;;
8312;SDS011;4194;43.408;24.626;2023-07-31T15:19:22;2.60;;;2.35;;